Friday, July 20, 2018, 11:42 AM CDT
Back to Local

KWLD, Strother Field

Location: Winfield, KS, United States Lat: 37.167
Local Time: 11:42 AM CDT (16:42 GMT) Lon: -97.033
Time Zone: US/Central Elev: 1161 ft

Show me the last for .
Show Decoded

2018-07-20 10:54 METAR KWLD 201554Z AUTO 07008KT 10SM CLR 31/23 A2989 RMK AO2 SLP105 T03060233 =
2018-07-20 09:54 METAR KWLD 201454Z AUTO 09005KT 10SM CLR 29/23 A2989 RMK AO2 SLP107 T02890228
                 53012 =
2018-07-20 08:54 METAR KWLD 201354Z AUTO 06006KT 10SM CLR 27/23 A2988 RMK AO2 SLP103 T02720228 =
2018-07-20 07:54 METAR KWLD 201254Z AUTO 07007KT 10SM CLR 24/22 A2986 RMK AO2 SLP097 T02390217 =
2018-07-20 06:54 METAR KWLD 201154Z AUTO 02004KT 9SM CLR 23/22 A2986 RMK AO2 SLP096 T02280217
                 10278 20222 51018 =
2018-07-20 05:54 METAR KWLD 201054Z AUTO 06004KT 10SM CLR 23/22 A2984 RMK AO2 SLP088 T02330217 =
2018-07-20 04:54 METAR KWLD 200954Z AUTO 06005KT 10SM CLR 24/22 A2983 RMK AO2 SLP084 T02440217 =
2018-07-20 03:54 METAR KWLD 200854Z AUTO 07003KT 10SM CLR 25/22 A2980 RMK AO2 SLP076 T02500217
                 55017 =
2018-07-20 02:54 METAR KWLD 200754Z AUTO 08006KT 10SM CLR 27/21 A2980 RMK AO2 SLP073 T02670211 =
2018-07-20 01:54 METAR KWLD 200654Z AUTO 14010G18KT 10SM CLR 27/21 A2980 RMK AO2 SLP074 T02720211
                 =
2018-07-20 00:54 METAR KWLD 200554Z AUTO 16007KT 10SM BKN120 27/21 A2985 RMK AO2 LTG DSNT S
                 SLP093 T02670206 10350 20256 403670217 50005 =
2018-07-19 23:54 METAR KWLD 200454Z AUTO 14004KT 10SM CLR 27/21 A2987 RMK AO2 LTG DSNT S-W SLP100
                 T02670206 =
2018-07-19 22:54 METAR KWLD 200354Z AUTO 09010KT 10SM CLR 28/21 A2985 RMK AO2 LTG DSNT W SLP091
                 T02830211 =
2018-07-19 21:54 METAR KWLD 200254Z AUTO 10005KT 10SM CLR 31/24 A2984 RMK AO2 LTG DSNT E SLP088
                 T03110239 53017 =
2018-07-19 20:54 METAR KWLD 200154Z AUTO 09008KT 10SM CLR 32/25 A2981 RMK AO2 LTG DSNT N AND NE
                 SLP079 T03170250 =
2018-07-19 19:54 METAR KWLD 200054Z AUTO 11010KT 10SM CLR 33/25 A2980 RMK AO2 LTG DSNT NE SLP076
                 T03330250 =
2018-07-19 18:54 METAR KWLD 192354Z AUTO 11008KT 10SM CLR 35/25 A2979 RMK AO2 SLP072 T03500250
                 10367 20328 56014 =
2018-07-19 17:54 METAR KWLD 192254Z AUTO 12006KT 10SM CLR 36/24 A2980 RMK AO2 SLP074 T03610239 =
2018-07-19 16:54 METAR KWLD 192154Z AUTO 16005KT 10SM CLR 36/23 A2981 RMK AO2 SLP079 T03610233 =
2018-07-19 15:54 METAR KWLD 192054Z AUTO 13008KT 10SM CLR 36/26 A2983 RMK AO2 SLP087 T03560261
                 56008 =
2018-07-19 14:54 METAR KWLD 191954Z AUTO 13007KT 10SM CLR 35/24 A2984 RMK AO2 SLP089 T03500244 =
2018-07-19 13:54 METAR KWLD 191854Z AUTO VRB05KT 10SM CLR 34/26 A2984 RMK AO2 SLP091 T03440256 =
2018-07-19 12:54 METAR KWLD 191754Z AUTO 20005KT 10SM CLR 33/26 A2985 RMK AO2 SLP095 T03280256
                 10328 20228 58012 =
2018-07-19 11:54 METAR KWLD 191654Z AUTO VRB03KT 10SM CLR 32/26 A2987 RMK AO2 SLP101 T03170261 =

Support USWX by starting your Amazon purchase here.